Time;durP1;ratioP1;P1;durP2;ratioP2;P2;SDS_P1;SDS_P2;PMS_P1;PMS_P2;Temp;Humidity;BMP_temperature;BMP_pressure;BME280_temperature;BME280_humidity;BME280_pressure;Samples;Min_cycle;Max_cycle;Signal;HPM_P1;HPM_P2
2023/03/15 00:00:46;;;;;;;4.87;1.00;;;5.60;48.90;;;;;;5017314;28;46041;-78
2023/03/15 00:03:13;;;;;;;2.60;1.20;;;5.50;48.80;;;;;;5017032;28;46371;-78
2023/03/15 00:05:42;;;;;;;2.27;1.20;;;5.50;48.80;;;;;;5020842;28;46567;-77
2023/03/15 00:08:08;;;;;;;1.83;1.13;;;5.40;49.00;;;;;;5014017;28;46336;-79
2023/03/15 00:10:33;;;;;;;2.10;1.10;;;5.40;50.00;;;;;;5021134;28;46340;-79
2023/03/15 00:12:59;;;;;;;4.63;2.90;;;5.10;51.70;;;;;;5015682;28;46449;-78
2023/03/15 00:15:25;;;;;;;2.87;1.50;;;4.30;54.70;;;;;;5015492;28;46268;-80
2023/03/15 00:17:50;;;;;;;2.00;1.20;;;3.60;57.80;;;;;;5014450;28;45840;-79
2023/03/15 00:20:18;;;;;;;2.97;1.10;;;3.40;59.00;;;;;;5017549;28;45955;-78
2023/03/15 00:22:44;;;;;;;3.53;1.20;;;3.10;60.30;;;;;;5017700;28;46680;-78
2023/03/15 00:25:10;;;;;;;2.30;1.03;;;2.80;61.50;;;;;;5015344;28;46442;-78
2023/03/15 00:27:35;;;;;;;1.30;0.80;;;2.70;62.90;;;;;;5014897;28;46211;-81
2023/03/15 00:30:01;;;;;;;1.30;0.83;;;2.60;63.80;;;;;;5021352;28;46474;-79
2023/03/15 00:32:26;;;;;;;1.80;1.00;;;2.60;64.10;;;;;;5022668;28;46761;-80
2023/03/15 00:34:53;;;;;;;1.77;0.90;;;2.60;64.10;;;;;;5013840;28;46639;-78
2023/03/15 00:37:20;;;;;;;4.33;1.03;;;2.70;64.10;;;;;;5018402;28;45835;-79
2023/03/15 00:39:46;;;;;;;2.60;0.80;;;2.70;63.40;;;;;;5018607;28;45882;-78
2023/03/15 00:42:14;;;;;;;1.77;0.90;;;2.90;62.70;;;;;;5011253;28;48132;-79
2023/03/15 00:44:41;;;;;;;1.67;1.20;;;2.90;61.60;;;;;;5012461;28;46458;-78
2023/03/15 00:47:11;;;;;;;1.30;0.80;;;3.00;61.10;;;;;;5016270;28;46542;-79
2023/03/15 00:49:37;;;;;;;1.40;0.70;;;3.00;60.80;;;;;;5015256;28;46670;-79
2023/03/15 00:52:04;;;;;;;1.43;0.80;;;3.10;60.60;;;;;;5019861;28;48056;-79
2023/03/15 00:54:32;;;;;;;1.10;0.70;;;3.10;60.30;;;;;;5011932;28;46526;-79
2023/03/15 00:56:58;;;;;;;2.10;0.88;;;3.20;60.00;;;;;;5017971;28;46451;-78
2023/03/15 00:59:24;;;;;;;1.53;0.97;;;3.20;60.00;;;;;;5015907;28;46305;-79
2023/03/15 01:01:49;;;;;;;1.30;0.80;;;3.20;59.60;;;;;;5015916;28;46444;-80
2023/03/15 01:04:15;;;;;;;1.80;0.73;;;3.20;59.70;;;;;;5016014;28;46374;-81
2023/03/15 01:06:41;;;;;;;1.40;0.90;;;3.20;59.70;;;;;;5018555;28;46577;-80
2023/03/15 01:09:08;;;;;;;2.23;0.90;;;3.00;59.70;;;;;;5016675;28;45950;-81
2023/03/15 01:11:34;;;;;;;1.10;0.80;;;3.20;59.70;;;;;;5018910;28;47322;-80
2023/03/15 01:14:02;;;;;;;1.30;0.90;;;3.20;59.60;;;;;;5017661;28;46879;-81
2023/03/15 01:16:31;;;;;;;1.20;0.85;;;3.20;59.60;;;;;;5022323;28;46282;-81
2023/03/15 01:18:57;;;;;;;1.10;0.70;;;3.20;59.70;;;;;;5020134;28;46586;-81
2023/03/15 01:21:22;;;;;;;2.20;0.93;;;3.10;59.50;;;;;;5019535;28;46401;-82
2023/03/15 01:23:49;;;;;;;1.60;0.93;;;3.10;59.70;;;;;;5013900;28;46911;-78
2023/03/15 01:26:16;;;;;;;1.47;1.10;;;3.10;60.30;;;;;;5016291;28;46483;-79
2023/03/15 01:28:42;;;;;;;1.00;0.70;;;3.10;60.50;;;;;;5017567;28;46594;-78
2023/03/15 01:31:26;;;;;;;1.10;0.90;;;3.10;61.00;;;;;;5016813;28;46364;-79
2023/03/15 01:33:52;;;;;;;1.88;0.80;;;3.10;60.60;;;;;;5014038;28;46360;-78
2023/03/15 01:36:18;;;;;;;2.33;1.00;;;3.20;61.10;;;;;;5019294;28;46454;-79
2023/03/15 01:38:43;;;;;;;1.40;1.10;;;3.20;60.80;;;;;;5022117;28;46581;-79
2023/03/15 01:41:12;;;;;;;1.60;1.20;;;3.20;60.90;;;;;;5021515;28;48314;-79
2023/03/15 01:43:38;;;;;;;1.40;0.90;;;3.30;60.60;;;;;;5018854;28;46563;-79
2023/03/15 01:46:13;;;;;;;1.80;1.00;;;3.30;60.40;;;;;;5014821;28;46396;-78
2023/03/15 01:48:44;;;;;;;4.50;0.90;;;3.30;61.40;;;;;;5015865;28;46388;-78
2023/03/15 01:51:38;;;;;;;2.87;1.10;;;3.10;62.50;;;;;;5019123;28;48589;-79
2023/03/15 01:54:17;;;;;;;1.40;1.00;;;3.20;62.70;;;;;;5012304;28;46845;-79
2023/03/15 01:56:49;;;;;;;1.50;1.13;;;3.20;62.90;;;;;;5020046;28;46291;-79
2023/03/15 01:59:22;;;;;;;5.20;1.20;;;3.20;63.10;;;;;;5016684;28;45856;-78
2023/03/15 02:01:49;;;;;;;2.30;1.30;;;3.10;64.00;;;;;;5019328;28;47578;-77
2023/03/15 02:04:41;;;;;;;1.48;1.13;;;3.00;65.40;;;;;;5014527;28;47139;-78
2023/03/15 02:07:08;;;;;;;1.53;1.30;;;3.00;66.40;;;;;;5022470;28;46324;-79
2023/03/15 02:09:48;;;;;;;1.60;1.40;;;2.90;68.30;;;;;;5022225;28;46335;-79
2023/03/15 02:12:14;;;;;;;2.87;1.60;;;2.80;69.00;;;;;;5017810;28;46957;-79
2023/03/15 02:14:40;;;;;;;2.10;1.70;;;2.70;70.20;;;;;;5016892;28;46485;-80
2023/03/15 02:17:06;;;;;;;4.37;1.60;;;2.70;70.80;;;;;;5014134;28;46341;-79
2023/03/15 02:19:52;;;;;;;1.70;1.40;;;2.50;71.50;;;;;;5045658;28;46566;-79
2023/03/15 02:22:55;;;;;;;1.90;1.27;;;2.20;71.70;;;;;;5014701;28;47206;-79
2023/03/15 02:25:45;;;;;;;1.50;1.00;;;2.10;72.70;;;;;;5019295;28;46605;-78
2023/03/15 02:28:13;;;;;;;1.10;0.75;;;1.90;73.20;;;;;;5020044;28;46266;-78
2023/03/15 02:30:39;;;;;;;1.53;1.07;;;2.00;72.90;;;;;;5016668;28;46594;-78
2023/03/15 02:33:14;;;;;;;4.15;1.02;;;1.90;72.70;;;;;;5016842;28;46376;-78
2023/03/15 02:35:40;;;;;;;1.85;0.90;;;2.00;72.30;;;;;;5016704;28;46399;-78
2023/03/15 02:38:06;;;;;;;1.83;1.00;;;2.00;72.00;;;;;;5020674;28;46749;-78
2023/03/15 02:40:31;;;;;;;3.33;1.13;;;2.00;71.60;;;;;;5012212;28;46478;-79
2023/03/15 02:43:02;;;;;;;2.60;1.07;;;2.10;71.10;;;;;;5025866;28;46468;-78
2023/03/15 02:45:30;;;;;;;2.75;1.20;;;2.00;71.10;;;;;;5028544;28;46316;-78
2023/03/15 02:47:56;;;;;;;2.20;1.05;;;2.00;71.10;;;;;;5026895;28;45912;-78
2023/03/15 02:50:22;;;;;;;1.73;1.13;;;2.00;71.10;;;;;;5017084;28;46386;-78
2023/03/15 02:52:47;;;;;;;3.10;1.37;;;2.00;71.10;;;;;;5016234;28;47597;-78
2023/03/15 02:55:13;;;;;;;3.17;1.13;;;2.10;71.30;;;;;;5021281;28;47185;-82
2023/03/15 02:57:39;;;;;;;3.40;1.20;;;2.10;71.10;;;;;;5024148;28;46340;-79
2023/03/15 03:00:13;;;;;;;3.50;1.30;;;2.20;71.20;;;;;;5019687;28;46435;-83
2023/03/15 03:02:42;;;;;;;2.05;1.08;;;2.30;70.70;;;;;;5017935;28;48529;-78
2023/03/15 03:05:09;;;;;;;2.45;1.17;;;2.40;70.30;;;;;;5029960;28;46374;-81
2023/03/15 03:07:34;;;;;;;2.10;1.08;;;2.40;70.00;;;;;;5023782;28;45796;-84
2023/03/15 03:10:00;;;;;;;4.00;1.40;;;2.30;69.90;;;;;;5021990;28;46422;-86
2023/03/15 03:12:26;;;;;;;1.80;1.10;;;2.40;70.00;;;;;;5043160;28;48265;-79
2023/03/15 03:14:51;;;;;;;1.40;1.10;;;2.40;69.70;;;;;;5013623;28;46451;-79
2023/03/15 03:17:17;;;;;;;2.37;1.23;;;2.30;69.60;;;;;;5016297;28;46509;-78
2023/03/15 03:19:43;;;;;;;5.20;1.87;;;2.30;69.50;;;;;;5046074;28;46474;-78
2023/03/15 03:22:11;;;;;;;3.47;1.30;;;2.40;69.50;;;;;;5014919;28;47492;-77
2023/03/15 03:24:37;;;;;;;6.38;1.30;;;2.30;69.40;;;;;;5015485;28;45822;-78
2023/03/15 03:27:03;;;;;;;5.80;1.40;;;2.30;69.60;;;;;;5019278;28;46511;-78
2023/03/15 03:29:29;;;;;;;3.15;1.15;;;2.40;69.60;;;;;;5022182;28;46457;-79
2023/03/15 03:31:55;;;;;;;1.97;1.10;;;2.40;69.40;;;;;;5015643;28;46700;-78
2023/03/15 03:34:20;;;;;;;3.53;1.00;;;2.40;69.20;;;;;;5016933;28;46415;-78
2023/03/15 03:36:47;;;;;;;2.43;1.10;;;2.30;69.10;;;;;;5017413;28;46437;-77
2023/03/15 03:39:13;;;;;;;1.53;0.80;;;2.30;69.00;;;;;;5016552;28;46393;-79
2023/03/15 03:41:39;;;;;;;2.70;1.20;;;2.20;69.20;;;;;;5015678;28;47182;-78
2023/03/15 03:44:04;;;;;;;2.80;1.20;;;2.10;69.40;;;;;;5017641;28;46472;-78
2023/03/15 03:46:30;;;;;;;1.80;1.20;;;2.10;69.40;;;;;;5018464;28;45834;-77
2023/03/15 03:48:56;;;;;;;8.97;1.33;;;2.10;69.30;;;;;;5021658;28;46564;-78
2023/03/15 03:51:21;;;;;;;2.00;1.00;;;2.10;69.40;;;;;;5018535;28;48061;-78
2023/03/15 03:53:47;;;;;;;1.70;1.00;;;2.10;69.10;;;;;;5021782;28;46261;-78
2023/03/15 03:56:12;;;;;;;3.17;1.30;;;2.20;68.90;;;;;;5018013;28;46402;-80
2023/03/15 03:58:38;;;;;;;3.13;1.43;;;2.20;68.80;;;;;;5018150;28;46541;-79
2023/03/15 04:01:04;;;;;;;4.97;1.20;;;2.20;68.70;;;;;;5019109;28;47152;-77
2023/03/15 04:03:30;;;;;;;6.78;1.15;;;2.20;68.60;;;;;;5015550;28;46501;-78
2023/03/15 04:05:57;;;;;;;3.75;1.30;;;2.20;68.80;;;;;;5019930;28;46529;-78
2023/03/15 04:08:24;;;;;;;2.30;1.30;;;2.20;68.60;;;;;;5023152;28;46303;-79
2023/03/15 04:10:54;;;;;;;2.58;1.33;;;2.20;68.30;;;;;;5011371;28;46399;-77
2023/03/15 04:13:21;;;;;;;2.35;1.30;;;2.30;68.20;;;;;;5011556;28;46467;-79
2023/03/15 04:15:47;;;;;;;6.30;1.85;;;2.30;68.10;;;;;;5018630;28;46453;-78
2023/03/15 04:18:13;;;;;;;3.87;1.63;;;2.40;68.20;;;;;;5023475;28;46349;-77
2023/03/15 04:20:45;;;;;;;3.47;1.42;;;2.30;68.20;;;;;;5045630;28;49720;-77
2023/03/15 04:23:15;;;;;;;3.05;1.48;;;2.20;68.10;;;;;;5015941;28;46398;-78
2023/03/15 04:25:41;;;;;;;4.72;1.83;;;2.20;68.10;;;;;;5018025;28;46698;-79
2023/03/15 04:28:10;;;;;;;4.07;1.35;;;2.20;68.10;;;;;;5015806;28;46669;-79
2023/03/15 04:30:36;;;;;;;2.20;1.30;;;2.10;68.10;;;;;;5014545;28;46379;-78
2023/03/15 04:33:03;;;;;;;5.15;1.75;;;2.10;68.20;;;;;;5014480;28;46427;-79
2023/03/15 04:35:31;;;;;;;6.18;2.28;;;2.10;68.20;;;;;;5022181;28;46357;-78
2023/03/15 04:37:56;;;;;;;4.82;1.15;;;2.00;68.10;;;;;;5015884;28;46624;-78
2023/03/15 04:40:23;;;;;;;3.40;1.50;;;2.00;68.20;;;;;;5021014;28;47713;-79
2023/03/15 04:42:50;;;;;;;4.28;1.50;;;2.00;68.30;;;;;;5015821;28;46293;-79
2023/03/15 04:45:16;;;;;;;3.95;1.70;;;1.90;68.40;;;;;;5047564;28;46356;-80
2023/03/15 04:47:42;;;;;;;4.95;1.75;;;1.80;68.40;;;;;;5017341;28;46954;-79
2023/03/15 04:50:08;;;;;;;7.67;1.90;;;1.80;69.80;;;;;;5018158;28;46392;-80
2023/03/15 04:52:34;;;;;;;3.70;1.60;;;1.70;68.90;;;;;;5020213;28;46393;-79
2023/03/15 04:54:59;;;;;;;2.97;1.47;;;1.60;69.20;;;;;;5014846;28;45783;-80
2023/03/15 04:57:25;;;;;;;3.00;1.40;;;1.60;69.50;;;;;;5023598;28;46312;-81
2023/03/15 04:59:51;;;;;;;4.47;1.50;;;1.50;69.60;;;;;;5020256;28;46194;-79
2023/03/15 05:02:16;;;;;;;4.10;1.57;;;1.50;70.00;;;;;;5016688;28;45800;-77
2023/03/15 05:04:42;;;;;;;5.07;2.13;;;1.40;70.50;;;;;;5015677;28;46395;-77
2023/03/15 05:07:08;;;;;;;5.27;2.10;;;1.40;70.60;;;;;;5017490;28;46442;-77
2023/03/15 05:09:37;;;;;;;7.20;2.30;;;1.40;70.50;;;;;;5015303;28;47415;-79
2023/03/15 05:12:05;;;;;;;3.95;2.10;;;1.40;70.50;;;;;;5015670;28;46359;-78
2023/03/15 05:14:32;;;;;;;5.38;2.17;;;1.30;70.50;;;;;;5019690;28;46252;-78
2023/03/15 05:16:58;;;;;;;3.50;2.10;;;1.30;70.50;;;;;;5016513;28;46647;-77
2023/03/15 05:19:27;;;;;;;5.85;2.90;;;1.30;70.50;;;;;;5015242;28;49202;-79
2023/03/15 05:21:56;;;;;;;4.85;2.70;;;1.20;70.40;;;;;;5013748;28;46395;-78
2023/03/15 05:24:22;;;;;;;5.72;2.95;;;1.10;70.30;;;;;;5016707;28;46297;-77
2023/03/15 05:26:47;;;;;;;6.35;2.55;;;1.10;70.70;;;;;;5015282;28;46376;-79
2023/03/15 05:29:13;;;;;;;4.53;2.70;;;1.10;71.00;;;;;;5013197;28;46462;-80
2023/03/15 05:31:39;;;;;;;4.90;3.10;;;1.00;71.30;;;;;;5014403;28;46403;-79
2023/03/15 05:34:05;;;;;;;6.10;3.60;;;1.00;71.70;;;;;;5009893;28;46571;-80
2023/03/15 05:36:32;;;;;;;9.52;3.45;;;1.00;71.70;;;;;;5016589;28;46350;-80
2023/03/15 05:38:58;;;;;;;6.30;3.78;;;1.10;71.50;;;;;;5015497;28;46340;-78
2023/03/15 05:41:23;;;;;;;8.00;4.30;;;1.20;70.80;;;;;;5015122;28;46158;-77
2023/03/15 05:43:50;;;;;;;6.70;3.57;;;1.30;70.50;;;;;;5012012;28;46398;-78
2023/03/15 05:46:15;;;;;;;11.25;3.60;;;1.40;70.50;;;;;;5017296;28;46047;-78
2023/03/15 05:48:41;;;;;;;8.13;4.27;;;1.50;70.60;;;;;;5016317;28;46210;-78
2023/03/15 05:51:07;;;;;;;9.63;4.20;;;1.60;69.70;;;;;;5015988;28;46462;-77
2023/03/15 05:53:32;;;;;;;7.97;4.67;;;1.80;69.20;;;;;;5017074;28;46123;-77
2023/03/15 05:55:58;;;;;;;10.17;4.60;;;1.90;68.90;;;;;;5027722;28;46419;-79
2023/03/15 05:58:24;;;;;;;8.47;4.80;;;1.90;68.80;;;;;;5010675;28;46438;-79
2023/03/15 06:00:49;;;;;;;7.93;4.97;;;2.00;68.70;;;;;;5013332;28;46394;-79
2023/03/15 06:03:15;;;;;;;11.03;5.13;;;2.10;68.60;;;;;;5015663;28;47661;-79
2023/03/15 06:05:41;;;;;;;7.93;4.37;;;2.30;68.30;;;;;;5014567;28;45884;-79
2023/03/15 06:08:07;;;;;;;8.00;4.40;;;2.40;68.20;;;;;;5045979;28;48172;-79
2023/03/15 06:10:32;;;;;;;11.00;4.97;;;2.50;68.00;;;;;;5013577;28;46698;-77
2023/03/15 06:12:58;;;;;;;8.23;4.27;;;2.60;67.90;;;;;;5012682;28;46547;-79
2023/03/15 06:15:24;;;;;;;7.38;4.13;;;2.70;67.50;;;;;;5021653;28;46565;-80
2023/03/15 06:17:50;;;;;;;9.57;4.07;;;2.70;67.20;;;;;;5017236;28;47257;-80
2023/03/15 06:20:16;;;;;;;10.50;3.67;;;2.70;67.10;;;;;;5015084;28;46441;-77
2023/03/15 06:22:41;;;;;;;9.53;4.23;;;2.70;67.00;;;;;;5013407;28;46342;-79
2023/03/15 06:25:08;;;;;;;8.77;4.50;;;2.70;66.90;;;;;;5011282;28;46616;-79
2023/03/15 06:27:33;;;;;;;8.15;4.00;;;2.70;67.00;;;;;;5015714;28;46544;-79
2023/03/15 06:29:59;;;;;;;6.10;3.80;;;2.60;67.40;;;;;;5015550;28;46393;-77
2023/03/15 06:32:24;;;;;;;11.23;5.33;;;2.40;67.50;;;;;;5028721;28;46729;-80
2023/03/15 06:34:50;;;;;;;11.60;5.40;;;2.40;67.80;;;;;;5028150;28;46408;-80
2023/03/15 06:37:16;;;;;;;5.57;4.00;;;2.40;67.90;;;;;;5020573;28;48082;-81
2023/03/15 06:39:43;;;;;;;8.70;4.97;;;2.50;67.60;;;;;;5018212;28;46341;-80
2023/03/15 06:42:11;;;;;;;8.60;5.03;;;2.60;67.40;;;;;;5012981;28;45752;-82
2023/03/15 06:44:37;;;;;;;8.53;4.90;;;2.80;67.00;;;;;;5022024;28;46537;-82
2023/03/15 06:47:03;;;;;;;7.17;4.53;;;3.10;66.50;;;;;;5018380;28;46378;-82
2023/03/15 06:49:29;;;;;;;11.20;4.90;;;3.30;66.20;;;;;;5010296;28;46529;-81
2023/03/15 06:51:55;;;;;;;8.15;4.47;;;3.20;66.10;;;;;;5017621;28;46487;-81
2023/03/15 06:54:21;;;;;;;9.23;5.40;;;3.20;66.40;;;;;;5019840;28;46369;-80
2023/03/15 06:56:46;;;;;;;11.13;5.73;;;3.20;66.60;;;;;;5017994;28;46380;-81
2023/03/15 06:59:12;;;;;;;7.27;4.87;;;3.30;66.40;;;;;;5003018;28;46494;-80
2023/03/15 07:01:37;;;;;;;6.70;4.47;;;3.30;66.50;;;;;;5016011;28;45851;-77
2023/03/15 07:04:03;;;;;;;10.00;4.53;;;3.40;66.40;;;;;;5020939;28;46387;-81
2023/03/15 07:06:29;;;;;;;8.97;5.73;;;3.60;66.40;;;;;;5044619;28;48249;-78
2023/03/15 07:08:54;;;;;;;16.30;8.17;;;3.70;66.20;;;;;;5014115;28;46487;-81
2023/03/15 07:11:20;;;;;;;9.87;5.37;;;3.90;65.80;;;;;;5016419;28;46428;-82
2023/03/15 07:13:46;;;;;;;7.20;4.90;;;4.00;65.40;;;;;;5012945;28;46510;-82
2023/03/15 07:16:11;;;;;;;10.30;5.27;;;4.20;65.00;;;;;;5014985;28;47492;-84
2023/03/15 07:18:37;;;;;;;10.73;5.33;;;4.30;65.00;;;;;;5048773;28;46354;-84
2023/03/15 07:21:04;;;;;;;10.33;5.13;;;4.30;64.70;;;;;;5018852;28;46326;-83
2023/03/15 07:23:30;;;;;;;10.00;5.23;;;4.20;64.80;;;;;;5021418;28;47469;-81
2023/03/15 07:25:56;;;;;;;17.10;5.07;;;4.20;64.90;;;;;;5010689;28;46584;-82
2023/03/15 07:28:24;;;;;;;10.33;5.27;;;4.20;65.10;;;;;;5018397;28;46359;-83
2023/03/15 07:31:01;;;;;;;16.20;5.20;;;4.30;64.80;;;;;;5020859;28;46353;-82
2023/03/15 07:33:28;;;;;;;11.90;5.00;;;4.40;64.80;;;;;;5022184;28;46408;-82
2023/03/15 07:35:54;;;;;;;12.53;5.33;;;4.40;64.70;;;;;;5016137;28;47215;-81
2023/03/15 07:38:27;;;;;;;7.17;4.73;;;4.60;64.50;;;;;;5022933;28;45794;-82
2023/03/15 07:40:53;;;;;;;8.87;4.90;;;4.70;64.10;;;;;;5025683;28;46477;-83
2023/03/15 07:43:22;;;;;;;11.30;5.50;;;4.80;63.90;;;;;;5022460;28;46378;-84
2023/03/15 07:45:48;;;;;;;8.60;4.03;;;5.00;62.60;;;;;;5017791;28;47403;-81
2023/03/15 07:48:14;;;;;;;6.93;4.20;;;5.10;62.10;;;;;;5017470;28;46412;-82
2023/03/15 07:50:41;;;;;;;9.23;4.60;;;5.00;61.90;;;;;;5020332;28;46358;-82
2023/03/15 07:53:07;;;;;;;13.60;4.30;;;4.80;62.60;;;;;;5019599;28;46641;-82
2023/03/15 07:55:33;;;;;;;7.33;3.80;;;4.80;62.30;;;;;;5046918;28;48203;-83
2023/03/15 07:57:59;;;;;;;15.43;5.00;;;4.80;62.60;;;;;;5048545;28;46451;-82
2023/03/15 08:00:24;;;;;;;13.50;4.47;;;5.00;62.10;;;;;;5020538;28;46636;-82
2023/03/15 08:02:50;;;;;;;10.80;3.73;;;5.20;61.80;;;;;;5025013;28;46645;-84
2023/03/15 08:05:18;;;;;;;9.70;3.57;;;5.30;61.30;;;;;;5036777;28;49374;-83
2023/03/15 08:07:48;;;;;;;14.37;3.77;;;5.30;61.30;;;;;;5018930;28;46319;-83
2023/03/15 08:10:15;;;;;;;11.03;4.10;;;5.20;61.30;;;;;;5026212;28;46339;-84
2023/03/15 08:12:42;;;;;;;8.23;3.33;;;5.20;61.30;;;;;;5019106;28;46407;-82
2023/03/15 08:15:12;;;;;;;21.70;4.73;;;5.30;61.30;;;;;;5021203;28;46455;-82
2023/03/15 08:17:38;;;;;;;8.23;3.80;;;5.30;60.10;;;;;;5023184;28;46147;-84
2023/03/15 08:20:04;;;;;;;11.37;3.43;;;5.30;60.00;;;;;;5018649;28;46459;-84
2023/03/15 08:22:30;;;;;;;10.57;4.33;;;5.40;59.90;;;;;;5024647;28;45871;-84
2023/03/15 08:24:56;;;;;;;8.80;3.70;;;5.60;59.00;;;;;;5020273;28;46642;-85
2023/03/15 08:27:25;;;;;;;11.73;4.20;;;5.50;58.00;;;;;;5032576;28;46458;-85
2023/03/15 08:29:51;;;;;;;11.60;4.20;;;5.60;58.30;;;;;;5030925;28;46479;-83
2023/03/15 08:32:18;;;;;;;13.17;3.30;;;5.80;58.90;;;;;;5034356;28;46427;-86
2023/03/15 08:34:44;;;;;;;15.07;3.70;;;5.50;55.90;;;;;;5034087;28;48560;-85
2023/03/15 08:37:10;;;;;;;11.90;3.20;;;5.60;56.50;;;;;;5029667;28;45825;-82
2023/03/15 08:39:37;;;;;;;12.77;3.57;;;5.70;56.10;;;;;;5026092;28;46515;-85
2023/03/15 08:42:03;;;;;;;13.03;4.40;;;5.90;55.90;;;;;;5016210;28;46403;-83
2023/03/15 08:44:28;;;;;;;7.13;3.07;;;5.80;56.00;;;;;;5013819;28;46994;-83
2023/03/15 08:46:54;;;;;;;9.70;2.80;;;5.70;56.00;;;;;;5024871;28;46855;-86
2023/03/15 08:49:20;;;;;;;9.00;2.87;;;5.80;56.00;;;;;;5051025;28;46401;-82
2023/03/15 08:51:45;;;;;;;6.00;2.20;;;5.90;55.50;;;;;;5012316;28;46507;-82
2023/03/15 08:54:13;;;;;;;8.73;2.80;;;5.60;51.20;;;;;;5012028;28;46465;-78
2023/03/15 08:56:40;;;;;;;6.57;2.90;;;5.40;52.00;;;;;;5016553;28;46454;-83
2023/03/15 08:59:05;;;;;;;10.83;2.70;;;5.40;53.10;;;;;;5043395;28;46395;-80
2023/03/15 09:01:32;;;;;;;5.23;2.60;;;5.50;53.10;;;;;;5019382;28;46620;-83
2023/03/15 09:03:57;;;;;;;11.37;2.60;;;5.70;52.90;;;;;;5016541;28;46092;-83
2023/03/15 09:06:23;;;;;;;10.60;3.50;;;5.80;52.00;;;;;;5017862;28;46315;-83
2023/03/15 09:08:49;;;;;;;11.83;2.97;;;5.70;51.90;;;;;;5018279;28;46252;-82
2023/03/15 09:11:14;;;;;;;10.50;3.43;;;5.90;52.20;;;;;;5022751;28;46198;-83
2023/03/15 09:13:40;;;;;;;4.27;2.10;;;5.90;51.50;;;;;;5020098;28;46182;-83
2023/03/15 09:16:06;;;;;;;6.90;2.30;;;5.90;51.10;;;;;;5022207;28;46418;-83
2023/03/15 09:18:32;;;;;;;8.73;2.57;;;5.90;51.20;;;;;;5025646;28;46293;-83
2023/03/15 09:20:58;;;;;;;5.70;1.83;;;6.00;51.10;;;;;;5015910;28;46482;-83
2023/03/15 09:23:24;;;;;;;8.43;2.60;;;6.10;50.80;;;;;;5021699;28;46472;-82
2023/03/15 09:25:49;;;;;;;3.60;2.50;;;6.20;51.00;;;;;;5021510;28;45793;-84
2023/03/15 09:28:15;;;;;;;6.57;2.23;;;6.10;50.10;;;;;;5051939;28;45861;-84
2023/03/15 09:30:41;;;;;;;7.87;2.17;;;6.00;51.40;;;;;;5020362;28;46486;-82
2023/03/15 09:33:07;;;;;;;5.30;1.93;;;6.00;49.90;;;;;;5022859;28;46543;-83
2023/03/15 09:35:32;;;;;;;6.03;1.80;;;6.10;49.70;;;;;;5021990;28;46419;-82
2023/03/15 09:37:59;;;;;;;5.93;2.00;;;6.00;50.40;;;;;;5053846;28;46444;-81
2023/03/15 09:40:27;;;;;;;7.90;2.27;;;6.20;50.50;;;;;;5020158;28;46672;-82
2023/03/15 09:43:16;;;;;;;7.20;1.90;;;6.30;49.40;;;;;;5019957;28;48130;-84
2023/03/15 09:46:06;;;;;;;8.13;1.80;;;6.50;49.60;;;;;;5014917;28;46504;-82
2023/03/15 09:48:36;;;;;;;9.73;1.60;;;6.00;48.30;;;;;;5023524;28;46354;-81
2023/03/15 09:51:14;;;;;;;6.70;1.80;;;5.70;48.00;;;;;;5026866;28;46399;-83
2023/03/15 09:53:55;;;;;;;3.80;1.90;;;5.70;48.90;;;;;;5016522;28;46432;-83
2023/03/15 09:56:29;;;;;;;4.90;1.90;;;6.00;49.20;;;;;;5023004;28;46282;-82
2023/03/15 09:58:58;;;;;;;7.40;2.30;;;6.00;49.20;;;;;;5010989;28;46604;-80
2023/03/15 10:01:36;;;;;;;18.20;3.10;;;6.00;49.20;;;;;;5013024;28;46531;-81
2023/03/15 10:04:21;;;;;;;5.33;2.30;;;6.20;49.30;;;;;;5018562;28;48639;-81
2023/03/15 10:06:53;;;;;;;8.00;1.90;;;6.50;48.00;;;;;;5045797;28;46729;-81
2023/03/15 10:09:22;;;;;;;4.70;1.83;;;6.70;47.40;;;;;;5049112;28;46731;-81
2023/03/15 10:12:14;;;;;;;6.73;1.97;;;6.90;47.20;;;;;;5048213;28;46446;-82
2023/03/15 10:15:17;;;;;;;11.00;2.00;;;7.10;47.10;;;;;;5018464;28;48496;-82
2023/03/15 10:17:46;;;;;;;36.53;2.77;;;7.20;46.80;;;;;;5024903;28;46527;-83
2023/03/15 10:20:17;;;;;;;2.73;1.07;;;7.00;45.60;;;;;;5024327;28;46747;-84
2023/03/15 10:22:59;;;;;;;6.53;1.10;;;6.50;42.60;;;;;;5027606;28;46393;-85
2023/03/15 10:25:27;;;;;;;6.20;1.40;;;6.30;41.40;;;;;;5026888;28;48410;-84
2023/03/15 10:28:00;;;;;;;2.67;1.30;;;6.10;41.30;;;;;;5028681;28;46399;-81
2023/03/15 10:30:29;;;;;;;6.83;1.43;;;6.00;42.20;;;;;;5017335;28;46487;-82
2023/03/15 10:33:02;;;;;;;3.60;1.27;;;6.10;42.20;;;;;;5009251;28;46461;-83
2023/03/15 10:35:28;;;;;;;4.73;1.13;;;6.20;41.70;;;;;;5018683;28;47125;-84
2023/03/15 10:37:54;;;;;;;3.67;1.40;;;6.20;41.30;;;;;;5020531;28;46361;-84
2023/03/15 10:40:45;;;;;;;3.20;1.10;;;6.20;41.40;;;;;;5011755;28;46326;-83
2023/03/15 10:43:21;;;;;;;2.53;1.00;;;6.10;39.40;;;;;;5018562;28;46479;-83
2023/03/15 10:46:10;;;;;;;5.93;1.23;;;6.20;40.00;;;;;;5049761;28;48344;-81
2023/03/15 10:48:37;;;;;;;3.87;1.20;;;6.30;39.10;;;;;;5021904;28;46163;-80
2023/03/15 10:51:29;;;;;;;6.20;1.70;;;6.60;39.40;;;;;;5015745;28;46399;-82
2023/03/15 10:54:01;;;;;;;2.27;1.50;;;6.80;39.10;;;;;;5044072;28;46403;-83
2023/03/15 10:56:34;;;;;;;5.27;1.27;;;6.60;37.80;;;;;;5021336;28;46626;-82
2023/03/15 10:59:00;;;;;;;7.03;1.60;;;6.30;37.40;;;;;;5016445;28;46392;-84
2023/03/15 11:01:33;;;;;;;9.80;1.23;;;6.50;37.90;;;;;;5019884;28;46368;-84
2023/03/15 11:04:08;;;;;;;5.33;1.33;;;6.90;37.80;;;;;;5022926;28;46490;-86
2023/03/15 11:06:43;;;;;;;2.13;1.03;;;7.00;37.20;;;;;;5049656;28;48130;-84
2023/03/15 11:09:15;;;;;;;3.13;0.90;;;7.20;37.00;;;;;;5022574;28;46490;-84
2023/03/15 11:11:54;;;;;;;5.33;1.27;;;7.40;35.50;;;;;;5022997;28;46194;-83
2023/03/15 11:14:20;;;;;;;3.93;1.27;;;6.90;35.30;;;;;;5019766;28;46525;-83
2023/03/15 11:16:49;;;;;;;3.20;1.30;;;6.80;34.70;;;;;;5017549;28;46550;-83
2023/03/15 11:19:17;;;;;;;3.10;1.20;;;6.80;35.20;;;;;;5018471;28;46292;-84
2023/03/15 11:21:44;;;;;;;4.70;1.17;;;6.60;34.10;;;;;;5030413;28;45796;-84
2023/03/15 11:24:21;;;;;;;1.60;0.93;;;6.50;34.60;;;;;;5014867;28;46466;-82
2023/03/15 11:26:52;;;;;;;2.13;1.00;;;6.80;34.60;;;;;;5015552;28;47916;-81
2023/03/15 11:29:25;;;;;;;2.50;0.90;;;6.90;34.50;;;;;;5022366;28;46295;-83
2023/03/15 11:31:51;;;;;;;5.77;1.00;;;6.90;33.20;;;;;;5016327;28;46351;-84
2023/03/15 11:34:54;;;;;;;2.30;1.20;;;6.60;32.70;;;;;;5033829;28;46372;-83
2023/03/15 11:37:25;;;;;;;5.20;1.20;;;6.50;32.70;;;;;;5015399;28;46334;-82
2023/03/15 11:40:00;;;;;;;2.83;1.20;;;6.90;33.00;;;;;;5018149;28;46391;-82
2023/03/15 11:42:34;;;;;;;2.77;1.20;;;7.00;31.30;;;;;;5035995;28;46573;-85
2023/03/15 11:45:15;;;;;;;3.43;1.10;;;7.00;31.10;;;;;;5021970;28;46715;-83
2023/03/15 11:47:53;;;;;;;2.90;1.10;;;7.40;30.50;;;;;;5047802;28;49375;-84
2023/03/15 11:50:19;;;;;;;2.83;1.10;;;8.00;30.80;;;;;;5029492;28;46490;-85
2023/03/15 11:52:49;;;;;;;8.00;1.10;;;8.50;29.80;;;;;;5021645;28;46347;-84
2023/03/15 11:55:26;;;;;;;2.30;1.00;;;9.60;30.50;;;;;;5020258;28;46382;-82
2023/03/15 11:57:53;;;;;;;2.97;1.00;;;9.30;29.90;;;;;;5018312;28;46480;-83
2023/03/15 12:00:34;;;;;;;8.60;1.10;;;9.20;29.40;;;;;;5019917;28;46371;-85
2023/03/15 12:03:34;;;;;;;3.57;1.00;;;9.40;29.50;;;;;;5022089;28;45866;-84
2023/03/15 12:06:33;;;;;;;3.60;1.13;;;9.50;29.00;;;;;;5022230;28;46482;-85
2023/03/15 12:09:00;;;;;;;3.10;1.50;;;9.40;27.90;;;;;;5025153;28;48538;-84
2023/03/15 12:11:26;;;;;;;7.13;1.57;;;9.60;28.20;;;;;;5029497;28;46205;-84
2023/03/15 12:13:57;;;;;;;2.97;1.17;;;9.20;26.30;;;;;;5029734;28;46261;-85
2023/03/15 12:16:25;;;;;;;2.97;1.07;;;8.80;26.10;;;;;;5031118;28;47467;-83
2023/03/15 12:18:53;;;;;;;3.13;1.10;;;8.90;27.50;;;;;;5019966;28;46700;-84
2023/03/15 12:21:40;;;;;;;4.57;1.10;;;9.20;27.30;;;;;;5019173;28;46379;-82
2023/03/15 12:24:14;;;;;;;2.03;1.07;;;9.50;27.40;;;;;;5047256;28;46395;-82
2023/03/15 12:26:45;;;;;;;16.80;2.03;;;9.60;26.60;;;;;;5042748;28;46347;-82
2023/03/15 12:29:18;;;;;;;3.10;1.07;;;9.00;26.20;;;;;;5019728;28;49525;-82
2023/03/15 12:31:51;;;;;;;3.50;1.37;;;8.70;27.10;;;;;;5026014;28;45709;-82
2023/03/15 12:34:47;;;;;;;2.53;1.20;;;8.90;27.50;;;;;;5020998;28;46511;-84
2023/03/15 12:37:20;;;;;;;2.37;1.10;;;8.90;27.70;;;;;;5019363;28;46471;-84
2023/03/15 12:40:00;;;;;;;4.10;1.10;;;8.80;27.20;;;;;;5023024;28;49474;-84
2023/03/15 12:42:32;;;;;;;2.20;1.00;;;9.30;27.60;;;;;;5026158;28;46263;-83
2023/03/15 12:45:16;;;;;;;2.77;1.30;;;9.50;26.60;;;;;;5018465;28;46614;-84
2023/03/15 12:47:45;;;;;;;3.50;1.00;;;9.40;26.60;;;;;;5014373;28;45882;-82
2023/03/15 12:50:42;;;;;;;2.03;1.00;;;9.40;26.50;;;;;;5016140;28;46074;-84
2023/03/15 12:53:29;;;;;;;7.97;1.70;;;9.30;26.40;;;;;;5040987;28;46249;-83
2023/03/15 12:56:26;;;;;;;7.10;1.20;;;8.70;26.00;;;;;;5017349;28;46261;-81
2023/03/15 12:59:02;;;;;;;13.80;1.43;;;8.70;26.00;;;;;;5026797;28;46288;-83
2023/03/15 13:01:29;;;;;;;3.73;1.40;;;9.00;26.20;;;;;;5023467;28;46467;-82
2023/03/15 13:03:57;;;;;;;4.33;1.23;;;9.30;26.40;;;;;;5023087;28;46501;-84
2023/03/15 13:06:34;;;;;;;4.03;1.17;;;9.40;26.50;;;;;;5043603;28;46282;-83